sensor_id;sensor_type;location;lat;lon;timestamp;pressure;altitude;pressure_sealevel;temperature;humidity
70458;BME280;57919;56.194;95.716;2023-05-10T00:06:40;99560.91;;;7.65;65.67
70458;BME280;57919;56.194;95.716;2023-05-10T00:16:42;99577.81;;;7.54;66.01
70458;BME280;57919;56.194;95.716;2023-05-10T00:26:44;99586.34;;;7.48;67.07
70458;BME280;57919;56.194;95.716;2023-05-10T00:36:46;99583.00;;;7.83;65.36
70458;BME280;57919;56.194;95.716;2023-05-10T00:46:49;99596.25;;;7.73;66.75
70458;BME280;57919;56.194;95.716;2023-05-10T00:56:51;99601.84;;;7.83;68.03
70458;BME280;57919;56.194;95.716;2023-05-10T01:06:53;99606.03;;;7.99;67.39
70458;BME280;57919;56.194;95.716;2023-05-10T01:16:55;99601.84;;;8.57;65.30
70458;BME280;57919;56.194;95.716;2023-05-10T01:37:15;99610.03;;;8.56;62.95
70458;BME280;57919;56.194;95.716;2023-05-10T01:57:46;99614.72;;;8.41;63.43
70458;BME280;57919;56.194;95.716;2023-05-10T02:07:50;99614.09;;;8.61;63.20
70458;BME280;57919;56.194;95.716;2023-05-10T02:17:55;99605.03;;;9.10;61.62
70458;BME280;57919;56.194;95.716;2023-05-10T02:27:59;99613.69;;;9.73;60.43
70458;BME280;57919;56.194;95.716;2023-05-10T02:38:04;99605.50;;;10.19;56.14
70458;BME280;57919;56.194;95.716;2023-05-10T02:48:07;99602.69;;;10.31;53.50
70458;BME280;57919;56.194;95.716;2023-05-10T02:58:09;99605.25;;;10.44;50.54
70458;BME280;57919;56.194;95.716;2023-05-10T03:08:11;99605.38;;;10.31;48.98
70458;BME280;57919;56.194;95.716;2023-05-10T03:18:28;99604.53;;;10.42;48.83
70458;BME280;57919;56.194;95.716;2023-05-10T03:28:31;99592.72;;;12.82;45.87
70458;BME280;57919;56.194;95.716;2023-05-10T03:38:35;99593.78;;;14.51;43.25
70458;BME280;57919;56.194;95.716;2023-05-10T03:48:38;99583.97;;;15.04;42.15
70458;BME280;57919;56.194;95.716;2023-05-10T03:58:40;99571.38;;;16.42;37.12
70458;BME280;57919;56.194;95.716;2023-05-10T04:08:42;99577.50;;;16.02;37.13
70458;BME280;57919;56.194;95.716;2023-05-10T04:18:44;99578.88;;;16.06;36.79
70458;BME280;57919;56.194;95.716;2023-05-10T04:28:47;99563.78;;;15.50;37.89
70458;BME280;57919;56.194;95.716;2023-05-10T04:38:49;99556.94;;;17.08;35.28
70458;BME280;57919;56.194;95.716;2023-05-10T04:48:50;99537.59;;;18.85;33.36
70458;BME280;57919;56.194;95.716;2023-05-10T04:58:53;99548.34;;;18.64;31.79
70458;BME280;57919;56.194;95.716;2023-05-10T05:08:55;99542.06;;;17.02;33.37
70458;BME280;57919;56.194;95.716;2023-05-10T05:18:57;99539.66;;;15.37;35.44
70458;BME280;57919;56.194;95.716;2023-05-10T05:28:59;99523.88;;;15.23;35.96
70458;BME280;57919;56.194;95.716;2023-05-10T05:39:01;99495.25;;;16.97;33.83
70458;BME280;57919;56.194;95.716;2023-05-10T05:49:03;99498.16;;;17.12;32.94
70458;BME280;57919;56.194;95.716;2023-05-10T05:59:05;99501.75;;;16.04;30.76
70458;BME280;57919;56.194;95.716;2023-05-10T06:09:07;99499.22;;;14.89;29.02
70458;BME280;57919;56.194;95.716;2023-05-10T06:19:10;99486.44;;;15.51;29.33
70458;BME280;57919;56.194;95.716;2023-05-10T06:29:12;99475.09;;;17.31;27.52
70458;BME280;57919;56.194;95.716;2023-05-10T06:39:14;99469.09;;;17.43;27.28
70458;BME280;57919;56.194;95.716;2023-05-10T06:49:16;99471.13;;;18.21;25.91
70458;BME280;57919;56.194;95.716;2023-05-10T06:59:18;99464.69;;;18.37;24.58
70458;BME280;57919;56.194;95.716;2023-05-10T07:09:20;99463.09;;;18.51;24.24
70458;BME280;57919;56.194;95.716;2023-05-10T07:19:22;99473.69;;;17.59;23.57
70458;BME280;57919;56.194;95.716;2023-05-10T07:29:24;99465.66;;;17.58;24.24
70458;BME280;57919;56.194;95.716;2023-05-10T07:39:27;99470.13;;;17.34;23.80
70458;BME280;57919;56.194;95.716;2023-05-10T07:49:29;99471.84;;;16.95;23.90
70458;BME280;57919;56.194;95.716;2023-05-10T07:59:31;99469.03;;;16.04;23.59
70458;BME280;57919;56.194;95.716;2023-05-10T08:09:34;99485.56;;;15.25;25.20
70458;BME280;57919;56.194;95.716;2023-05-10T08:19:36;99488.84;;;15.54;24.75
70458;BME280;57919;56.194;95.716;2023-05-10T08:29:38;99482.94;;;15.41;24.88
70458;BME280;57919;56.194;95.716;2023-05-10T08:39:40;99513.13;;;14.68;25.18
70458;BME280;57919;56.194;95.716;2023-05-10T08:49:43;99511.53;;;15.37;24.78
70458;BME280;57919;56.194;95.716;2023-05-10T08:59:47;99514.13;;;15.38;24.32
70458;BME280;57919;56.194;95.716;2023-05-10T09:09:50;99522.50;;;15.45;24.34
70458;BME280;57919;56.194;95.716;2023-05-10T09:20:02;99533.47;;;15.09;24.13
70458;BME280;57919;56.194;95.716;2023-05-10T09:30:07;99547.47;;;15.14;23.70
70458;BME280;57919;56.194;95.716;2023-05-10T09:40:17;99545.53;;;15.25;23.08
70458;BME280;57919;56.194;95.716;2023-05-10T09:50:21;99569.41;;;14.95;22.95
70458;BME280;57919;56.194;95.716;2023-05-10T10:00:23;99574.88;;;15.13;23.47
70458;BME280;57919;56.194;95.716;2023-05-10T10:10:26;99580.63;;;14.92;22.99
70458;BME280;57919;56.194;95.716;2023-05-10T10:20:29;99578.81;;;13.91;23.68
70458;BME280;57919;56.194;95.716;2023-05-10T10:30:46;99593.34;;;13.24;24.16
70458;BME280;57919;56.194;95.716;2023-05-10T10:41:09;99611.66;;;12.53;23.85
70458;BME280;57919;56.194;95.716;2023-05-10T10:51:13;99628.81;;;12.23;24.38
70458;BME280;57919;56.194;95.716;2023-05-10T11:01:16;99637.94;;;12.22;24.23
70458;BME280;57919;56.194;95.716;2023-05-10T11:11:18;99627.28;;;12.00;24.42
70458;BME280;57919;56.194;95.716;2023-05-10T11:21:22;99645.84;;;12.04;23.93
70458;BME280;57919;56.194;95.716;2023-05-10T11:31:24;99663.59;;;11.87;23.55
70458;BME280;57919;56.194;95.716;2023-05-10T11:41:29;99678.94;;;11.66;23.76
70458;BME280;57919;56.194;95.716;2023-05-10T11:51:34;99678.00;;;11.56;24.05
70458;BME280;57919;56.194;95.716;2023-05-10T12:01:37;99691.81;;;11.53;23.65
70458;BME280;57919;56.194;95.716;2023-05-10T12:11:40;99691.56;;;11.24;23.82
70458;BME280;57919;56.194;95.716;2023-05-10T12:21:43;99709.19;;;11.07;24.10
70458;BME280;57919;56.194;95.716;2023-05-10T12:31:56;99728.31;;;10.94;24.35
70458;BME280;57919;56.194;95.716;2023-05-10T12:41:58;99734.34;;;10.64;24.80
70458;BME280;57919;56.194;95.716;2023-05-10T12:52:01;99755.00;;;10.43;25.13
70458;BME280;57919;56.194;95.716;2023-05-10T13:02:03;99769.66;;;10.17;25.66
70458;BME280;57919;56.194;95.716;2023-05-10T13:12:05;99791.00;;;9.97;25.44
70458;BME280;57919;56.194;95.716;2023-05-10T13:22:07;99803.88;;;9.70;25.70
70458;BME280;57919;56.194;95.716;2023-05-10T13:32:09;99823.25;;;9.40;26.47
70458;BME280;57919;56.194;95.716;2023-05-10T13:42:11;99837.91;;;9.12;26.68
70458;BME280;57919;56.194;95.716;2023-05-10T13:52:13;99862.00;;;8.90;27.27
70458;BME280;57919;56.194;95.716;2023-05-10T14:02:15;99867.06;;;8.69;27.70
70458;BME280;57919;56.194;95.716;2023-05-10T14:12:17;99879.88;;;8.40;27.33
70458;BME280;57919;56.194;95.716;2023-05-10T14:22:19;99900.38;;;8.16;28.16
70458;BME280;57919;56.194;95.716;2023-05-10T14:32:21;99920.13;;;7.89;28.75
70458;BME280;57919;56.194;95.716;2023-05-10T14:42:23;99928.13;;;7.35;30.73
70458;BME280;57919;56.194;95.716;2023-05-10T15:03:38;99969.13;;;6.52;32.78
70458;BME280;57919;56.194;95.716;2023-05-10T15:13:40;99975.66;;;6.02;35.14
70458;BME280;57919;56.194;95.716;2023-05-10T15:23:42;100000.13;;;5.80;34.73
70458;BME280;57919;56.194;95.716;2023-05-10T15:33:44;100010.25;;;5.60;34.80
70458;BME280;57919;56.194;95.716;2023-05-10T15:43:45;100003.22;;;5.41;34.61
70458;BME280;57919;56.194;95.716;2023-05-10T15:53:47;100025.97;;;5.34;34.82
70458;BME280;57919;56.194;95.716;2023-05-10T16:03:49;100037.03;;;5.11;34.93
70458;BME280;57919;56.194;95.716;2023-05-10T16:13:51;100039.28;;;4.85;35.53
70458;BME280;57919;56.194;95.716;2023-05-10T16:23:54;100059.06;;;4.66;35.80
70458;BME280;57919;56.194;95.716;2023-05-10T16:33:57;100062.59;;;4.49;35.98
70458;BME280;57919;56.194;95.716;2023-05-10T16:43:59;100065.59;;;4.24;36.24
70458;BME280;57919;56.194;95.716;2023-05-10T16:54:01;100073.66;;;4.05;36.56
70458;BME280;57919;56.194;95.716;2023-05-10T17:04:03;100092.19;;;3.91;36.69
70458;BME280;57919;56.194;95.716;2023-05-10T17:14:05;100093.34;;;3.85;36.91
70458;BME280;57919;56.194;95.716;2023-05-10T17:24:07;100097.53;;;3.72;37.15
70458;BME280;57919;56.194;95.716;2023-05-10T17:34:09;100110.88;;;3.53;37.78
70458;BME280;57919;56.194;95.716;2023-05-10T17:44:11;100120.72;;;3.33;38.20
70458;BME280;57919;56.194;95.716;2023-05-10T17:54:14;100117.19;;;3.12;38.77
70458;BME280;57919;56.194;95.716;2023-05-10T18:04:16;100126.91;;;2.92;39.36
70458;BME280;57919;56.194;95.716;2023-05-10T18:14:18;100129.56;;;2.72;39.31
70458;BME280;57919;56.194;95.716;2023-05-10T18:24:20;100130.44;;;2.51;39.62
70458;BME280;57919;56.194;95.716;2023-05-10T18:34:22;100123.63;;;2.44;39.87
70458;BME280;57919;56.194;95.716;2023-05-10T18:44:24;100129.38;;;2.33;39.91
70458;BME280;57919;56.194;95.716;2023-05-10T18:54:27;100142.22;;;2.23;40.36
70458;BME280;57919;56.194;95.716;2023-05-10T19:04:30;100141.72;;;2.14;40.04
70458;BME280;57919;56.194;95.716;2023-05-10T19:14:32;100152.63;;;2.08;40.42
70458;BME280;57919;56.194;95.716;2023-05-10T19:24:34;100161.81;;;2.01;40.95
70458;BME280;57919;56.194;95.716;2023-05-10T19:34:36;100165.81;;;1.89;40.79
70458;BME280;57919;56.194;95.716;2023-05-10T19:44:38;100178.84;;;1.73;41.40
70458;BME280;57919;56.194;95.716;2023-05-10T19:54:40;100182.84;;;1.61;41.67
70458;BME280;57919;56.194;95.716;2023-05-10T20:04:42;100191.00;;;1.32;43.43
70458;BME280;57919;56.194;95.716;2023-05-10T20:14:44;100203.31;;;1.10;44.27
70458;BME280;57919;56.194;95.716;2023-05-10T20:24:45;100206.66;;;0.90;44.37
70458;BME280;57919;56.194;95.716;2023-05-10T20:34:48;100218.75;;;0.44;46.94
70458;BME280;57919;56.194;95.716;2023-05-10T20:44:50;100230.56;;;0.36;47.00
70458;BME280;57919;56.194;95.716;2023-05-10T20:54:52;100227.16;;;0.30;47.50
70458;BME280;57919;56.194;95.716;2023-05-10T21:04:54;100237.41;;;0.15;47.77
70458;BME280;57919;56.194;95.716;2023-05-10T21:14:56;100240.91;;;-0.14;47.87
70458;BME280;57919;56.194;95.716;2023-05-10T21:24:58;100245.81;;;-0.31;47.67
70458;BME280;57919;56.194;95.716;2023-05-10T21:35:01;100246.47;;;-0.23;47.58
70458;BME280;57919;56.194;95.716;2023-05-10T21:45:08;100246.91;;;-0.39;48.18
70458;BME280;57919;56.194;95.716;2023-05-10T21:55:10;100246.22;;;-0.47;48.95
70458;BME280;57919;56.194;95.716;2023-05-10T22:05:12;100256.16;;;-0.21;49.26
70458;BME280;57919;56.194;95.716;2023-05-10T22:15:14;100247.63;;;-0.01;48.28
70458;BME280;57919;56.194;95.716;2023-05-10T22:25:15;100257.97;;;0.39;48.21
70458;BME280;57919;56.194;95.716;2023-05-10T22:35:17;100259.41;;;1.05;47.38
70458;BME280;57919;56.194;95.716;2023-05-10T22:45:20;100257.09;;;1.47;46.98
70458;BME280;57919;56.194;95.716;2023-05-10T22:55:22;100260.28;;;1.32;48.91
70458;BME280;57919;56.194;95.716;2023-05-10T23:05:23;100259.94;;;1.43;48.69
70458;BME280;57919;56.194;95.716;2023-05-10T23:15:26;100253.19;;;2.98;46.40
70458;BME280;57919;56.194;95.716;2023-05-10T23:25:27;100258.59;;;4.77;43.58
70458;BME280;57919;56.194;95.716;2023-05-10T23:35:29;100246.59;;;6.41;41.35
70458;BME280;57919;56.194;95.716;2023-05-10T23:45:32;100237.22;;;7.87;39.23
70458;BME280;57919;56.194;95.716;2023-05-10T23:55:34;100233.41;;;9.45;37.04
